createdAt,value
2022-11-05T00:02:08.741Z,11.78
2022-11-05T00:04:58.266Z,11.06
2022-11-05T00:07:54.031Z,10.88
2022-11-05T00:10:29.611Z,12.01
2022-11-05T00:13:19.627Z,12.91
2022-11-05T00:16:08.567Z,13.49
2022-11-05T00:18:40.593Z,13.85
2022-11-05T00:21:26.433Z,14.07
2022-11-05T00:24:18.164Z,13.96
2022-11-05T00:26:52.199Z,12.94
2022-11-05T00:29:26.015Z,12.08
2022-11-05T00:31:57.757Z,11.39
2022-11-05T00:34:29.566Z,10.83
2022-11-05T00:37:01.336Z,10.64
2022-11-05T00:39:33.064Z,11.49
2022-11-05T00:42:22.790Z,12.37
2022-11-05T00:45:01.973Z,12.97
2022-11-05T00:47:52.521Z,13.43
2022-11-05T00:50:24.838Z,13.80
2022-11-05T00:52:59.609Z,14.04
2022-11-05T00:55:34.715Z,13.97
2022-11-05T00:58:08.382Z,13.10
2022-11-05T01:00:42.386Z,12.17
2022-11-05T01:03:15.945Z,11.44
2022-11-05T01:05:49.741Z,11.11
2022-11-05T01:08:23.207Z,11.91
2022-11-05T01:10:56.467Z,12.78
2022-11-05T01:13:30.963Z,13.31
2022-11-05T01:16:09.315Z,13.63
2022-11-05T01:18:41.259Z,13.82
2022-11-05T01:21:16.931Z,13.97
2022-11-05T01:23:48.728Z,14.09
2022-11-05T01:26:20.620Z,14.23
2022-11-05T01:28:54.551Z,14.14
2022-11-05T01:31:27.031Z,13.26
2022-11-05T01:34:01.103Z,12.35
2022-11-05T01:36:33.453Z,11.61
2022-11-05T01:39:06.447Z,11.26
2022-11-05T01:41:38.187Z,12.00
2022-11-05T01:44:40.423Z,12.80
2022-11-05T01:47:21.359Z,13.36
2022-11-05T01:49:53.330Z,13.73
2022-11-05T01:52:28.029Z,13.97
2022-11-05T01:55:00.056Z,14.09
2022-11-05T01:57:34.008Z,14.17
2022-11-05T02:00:06.790Z,14.27
2022-11-05T02:02:45.516Z,14.38
2022-11-05T02:05:18.187Z,14.22
2022-11-05T02:07:50.743Z,13.35
2022-11-05T02:10:24.197Z,12.47
2022-11-05T02:12:56.797Z,11.78
2022-11-05T02:15:38.635Z,11.49
2022-11-05T02:18:21.345Z,12.42
2022-11-05T02:21:04.249Z,13.34
2022-11-05T02:24:03.721Z,13.81
2022-11-05T02:27:05.801Z,14.02
2022-11-05T02:30:04.273Z,14.22
2022-11-05T02:32:59.064Z,14.42
2022-11-05T02:35:47.390Z,14.55
2022-11-05T02:38:34.662Z,14.61
2022-11-05T02:41:12.622Z,14.64
2022-11-05T02:43:56.282Z,14.68
2022-11-05T02:46:41.874Z,14.71
2022-11-05T02:49:27.486Z,14.49
2022-11-05T02:52:02.630Z,13.48
2022-11-05T02:54:41.038Z,12.54
2022-11-05T02:57:13.028Z,12.01
2022-11-05T02:59:44.719Z,12.57
2022-11-05T03:02:17.271Z,13.20
2022-11-05T03:04:49.204Z,13.63
2022-11-05T03:07:37.206Z,13.96
2022-11-05T03:10:23.885Z,14.15
2022-11-05T03:13:05.561Z,14.27
2022-11-05T03:15:55.687Z,14.38
2022-11-05T03:18:34.613Z,14.40
2022-11-05T03:21:11.008Z,14.30
2022-11-05T03:23:50.575Z,14.23
2022-11-05T03:26:28.041Z,14.25
2022-11-05T03:29:06.709Z,14.34
2022-11-05T03:31:40.497Z,14.50
2022-11-05T03:34:13.829Z,14.70
2022-11-05T03:36:49.788Z,14.81
2022-11-05T03:39:24.506Z,14.82
2022-11-05T03:41:58.314Z,14.82
2022-11-05T03:44:37.583Z,14.80
2022-11-05T03:47:14.891Z,14.81
2022-11-05T03:49:56.816Z,14.78
2022-11-05T03:52:34.878Z,14.78
2022-11-05T03:55:07.998Z,14.88
2022-11-05T03:57:44.211Z,14.76
2022-11-05T04:00:16.966Z,13.79
2022-11-05T04:02:49.017Z,12.79
2022-11-05T04:05:21.549Z,11.98
2022-11-05T04:08:19.359Z,11.63
2022-11-05T04:11:11.173Z,12.39
2022-11-05T04:13:43.036Z,13.09
2022-11-05T04:16:32.104Z,13.52
2022-11-05T04:19:04.102Z,13.83
2022-11-05T04:22:04.978Z,14.07
2022-11-05T04:24:36.940Z,14.40
2022-11-05T04:27:11.336Z,14.69
2022-11-05T04:30:00.420Z,14.90
2022-11-05T04:32:32.283Z,15.09
2022-11-05T04:35:04.110Z,15.20
2022-11-05T04:37:35.811Z,15.20
2022-11-05T04:40:09.168Z,14.45
2022-11-05T04:42:41.113Z,13.52
2022-11-05T04:45:12.916Z,12.76
2022-11-05T04:47:45.126Z,12.46
2022-11-05T04:50:17.064Z,13.35
2022-11-05T04:52:49.632Z,14.23
2022-11-05T04:55:21.985Z,14.57
2022-11-05T04:57:54.961Z,14.66
2022-11-05T05:00:27.626Z,14.73
2022-11-05T05:02:59.617Z,14.73
2022-11-05T05:05:32.143Z,14.76
2022-11-05T05:08:05.943Z,14.81
2022-11-05T05:10:37.720Z,14.80
2022-11-05T05:13:10.175Z,14.80
2022-11-05T05:15:42.402Z,14.82
2022-11-05T05:18:14.267Z,14.84
2022-11-05T05:21:03.781Z,15.02
2022-11-05T05:23:35.560Z,14.75
2022-11-05T05:26:07.738Z,13.69
2022-11-05T05:28:39.643Z,12.80
2022-11-05T05:31:11.361Z,12.38
2022-11-05T05:33:43.305Z,13.05
2022-11-05T05:36:15.205Z,13.78
2022-11-05T05:38:47.089Z,14.12
2022-11-05T05:41:19.421Z,14.36
2022-11-05T05:43:51.968Z,14.51
2022-11-05T05:46:23.842Z,14.69
2022-11-05T05:48:55.719Z,15.10
2022-11-05T05:51:27.646Z,15.50
2022-11-05T05:53:59.697Z,15.55
2022-11-05T05:56:31.867Z,14.67
2022-11-05T05:59:03.764Z,13.59
2022-11-05T06:01:35.984Z,12.76
2022-11-05T06:04:08.314Z,12.42
2022-11-05T06:06:40.155Z,13.24
2022-11-05T06:09:12.144Z,14.13
2022-11-05T06:11:44.146Z,14.68
2022-11-05T06:14:16.740Z,14.93
2022-11-05T06:16:48.470Z,14.90
2022-11-05T06:19:20.385Z,14.78
2022-11-05T06:21:52.162Z,14.72
2022-11-05T06:24:24.333Z,14.65
2022-11-05T06:26:56.064Z,14.58
2022-11-05T06:29:27.933Z,14.59
2022-11-05T06:31:59.946Z,14.65
2022-11-05T06:34:31.868Z,14.74
2022-11-05T06:37:03.792Z,14.97
2022-11-05T06:39:35.733Z,15.16
2022-11-05T06:42:23.109Z,15.17
2022-11-05T06:44:54.913Z,14.85
2022-11-05T06:47:26.800Z,13.87
2022-11-05T06:49:58.895Z,13.00
2022-11-05T06:52:31.408Z,12.49
2022-11-05T06:55:03.499Z,12.79
2022-11-05T06:57:38.139Z,13.05
2022-11-05T07:00:12.026Z,13.18
2022-11-05T07:02:43.930Z,13.36
2022-11-05T07:05:17.104Z,13.40
2022-11-05T07:07:48.997Z,13.51
2022-11-05T07:10:21.274Z,13.69
2022-11-05T07:12:53.058Z,13.93
2022-11-05T07:15:25.560Z,14.13
2022-11-05T07:18:01.423Z,14.13
2022-11-05T07:20:34.449Z,14.12
2022-11-05T07:23:08.748Z,14.27
2022-11-05T07:25:41.833Z,14.41
2022-11-05T07:28:14.702Z,14.41
2022-11-05T07:30:48.468Z,14.38
2022-11-05T07:33:20.406Z,14.53
2022-11-05T07:35:52.156Z,14.68
2022-11-05T07:38:23.967Z,14.80
2022-11-05T07:40:55.871Z,14.93
2022-11-05T07:43:27.753Z,15.05
2022-11-05T07:45:59.529Z,15.19
2022-11-05T07:48:31.739Z,15.29
2022-11-05T07:51:03.522Z,15.27
2022-11-05T07:53:35.557Z,14.62
2022-11-05T07:56:08.633Z,13.83
2022-11-05T07:58:40.475Z,13.24
2022-11-05T08:01:12.526Z,12.82
2022-11-05T08:03:44.637Z,12.67
2022-11-05T08:06:16.482Z,13.31
2022-11-05T08:08:48.405Z,14.10
2022-11-05T08:11:20.216Z,14.81
2022-11-05T08:13:52.106Z,15.33
2022-11-05T08:16:23.866Z,15.62
2022-11-05T08:18:57.778Z,15.67
2022-11-05T08:21:29.800Z,14.96
2022-11-05T08:24:01.682Z,14.23
2022-11-05T08:26:33.530Z,13.72
2022-11-05T08:29:05.283Z,13.32
2022-11-05T08:31:37.200Z,13.20
2022-11-05T08:34:09.200Z,13.94
2022-11-05T08:36:43.300Z,14.90
2022-11-05T08:39:17.069Z,15.62
2022-11-05T08:41:49.124Z,15.88
2022-11-05T08:44:21.039Z,16.01
2022-11-05T08:46:53.103Z,16.49
2022-11-05T08:49:25.062Z,16.75
2022-11-05T08:51:56.803Z,15.89
2022-11-05T08:54:28.978Z,14.93
2022-11-05T08:57:00.821Z,14.20
2022-11-05T08:59:32.729Z,13.62
2022-11-05T09:02:04.795Z,13.53
2022-11-05T09:04:36.650Z,14.62
2022-11-05T09:07:09.011Z,15.66
2022-11-05T09:09:40.940Z,16.34
2022-11-05T09:12:13.366Z,16.80
2022-11-05T09:14:45.263Z,16.89
2022-11-05T09:17:22.049Z,16.01
2022-11-05T09:19:54.010Z,15.05
2022-11-05T09:22:25.930Z,14.33
2022-11-05T09:24:57.866Z,13.78
2022-11-05T09:27:29.901Z,13.61
2022-11-05T09:30:01.942Z,14.77
2022-11-05T09:32:34.916Z,15.90
2022-11-05T09:35:08.382Z,16.66
2022-11-05T09:37:40.433Z,17.17
2022-11-05T09:40:16.779Z,17.30
2022-11-05T09:42:52.476Z,16.41
2022-11-05T09:45:28.515Z,15.47
2022-11-05T09:48:06.367Z,14.74
2022-11-05T09:50:42.034Z,14.17
2022-11-05T09:53:16.742Z,13.69
2022-11-05T09:55:52.649Z,13.67
2022-11-05T09:58:32.636Z,14.91
2022-11-05T10:01:07.561Z,16.00
2022-11-05T10:03:46.900Z,16.67
2022-11-05T10:06:22.868Z,17.18
2022-11-05T10:09:02.647Z,17.32
2022-11-05T10:11:39.881Z,16.40
2022-11-05T10:14:19.374Z,15.35
2022-11-05T10:16:56.115Z,14.48
2022-11-05T10:19:36.940Z,14.20
2022-11-05T10:22:14.000Z,15.23
2022-11-05T10:24:47.509Z,16.02
2022-11-05T10:27:23.348Z,16.48
2022-11-05T10:29:55.719Z,16.77
2022-11-05T10:32:32.128Z,16.84
2022-11-05T10:35:07.923Z,16.85
2022-11-05T10:37:41.171Z,16.89
2022-11-05T10:40:20.965Z,16.97
2022-11-05T10:43:02.057Z,17.07
2022-11-05T10:45:41.556Z,17.13
2022-11-05T10:48:30.890Z,17.14
2022-11-05T10:51:03.885Z,16.26
2022-11-05T10:53:39.601Z,15.03
2022-11-05T10:56:32.258Z,14.36
2022-11-05T10:59:09.358Z,15.22
2022-11-05T11:01:43.973Z,15.92
2022-11-05T11:04:24.999Z,16.33
2022-11-05T11:06:58.483Z,16.64
2022-11-05T11:09:32.720Z,16.77
2022-11-05T11:12:13.523Z,16.94
2022-11-05T11:15:00.605Z,17.12
2022-11-05T11:17:33.813Z,17.23
2022-11-05T11:20:27.304Z,17.30
2022-11-05T11:23:13.047Z,17.03
2022-11-05T11:25:51.609Z,15.79
2022-11-05T11:28:24.931Z,14.73
2022-11-05T11:31:04.682Z,13.89
2022-11-05T11:33:38.910Z,13.70
2022-11-05T11:36:13.721Z,14.82
2022-11-05T11:38:45.751Z,15.76
2022-11-05T11:41:29.163Z,16.31
2022-11-05T11:44:07.754Z,16.62
2022-11-05T11:46:40.322Z,16.85
2022-11-05T11:49:34.042Z,17.10
2022-11-05T11:52:15.661Z,17.35
2022-11-05T11:54:47.548Z,17.56
2022-11-05T11:57:25.596Z,17.44
2022-11-05T12:00:09.137Z,16.31
2022-11-05T12:03:01.604Z,15.20
2022-11-05T12:05:41.966Z,14.30
2022-11-05T12:08:31.776Z,14.12
2022-11-05T12:11:09.451Z,15.35
2022-11-05T12:13:58.116Z,16.29
2022-11-05T12:16:46.356Z,16.89
2022-11-05T12:19:32.579Z,17.30
2022-11-05T12:22:17.983Z,17.55
2022-11-05T12:25:03.310Z,17.76
2022-11-05T12:27:49.232Z,17.56
2022-11-05T12:30:23.759Z,16.37
2022-11-05T12:33:24.286Z,15.30
2022-11-05T12:36:09.962Z,14.37
2022-11-05T12:39:00.681Z,14.09
2022-11-05T12:41:39.269Z,14.93
2022-11-05T12:44:33.192Z,15.56
2022-11-05T12:47:16.386Z,15.98
2022-11-05T12:50:01.114Z,16.36
2022-11-05T12:53:13.789Z,16.68
2022-11-05T12:55:49.670Z,16.75
2022-11-05T12:58:28.231Z,16.73
2022-11-05T13:01:04.052Z,16.72
2022-11-05T13:03:43.593Z,16.74
2022-11-05T13:06:18.315Z,16.96
2022-11-05T13:08:59.317Z,17.06
2022-11-05T13:11:36.038Z,17.09
2022-11-05T13:14:14.709Z,17.12
2022-11-05T13:16:50.597Z,17.14
2022-11-05T13:19:25.966Z,17.16
2022-11-05T13:22:08.032Z,17.12
2022-11-05T13:24:48.538Z,17.18
2022-11-05T13:27:46.037Z,17.18
2022-11-05T13:30:21.138Z,17.20
2022-11-05T13:32:59.720Z,17.22
2022-11-05T13:35:37.005Z,17.21
2022-11-05T13:38:33.601Z,17.17
2022-11-05T13:41:20.130Z,17.18
2022-11-05T13:44:06.365Z,17.19
2022-11-05T13:46:52.376Z,17.14
2022-11-05T13:50:03.506Z,17.13
2022-11-05T13:52:56.986Z,17.13
2022-11-05T13:55:53.588Z,17.32
2022-11-05T13:58:58.798Z,17.42
2022-11-05T14:01:46.429Z,16.90
2022-11-05T14:04:32.924Z,15.74
2022-11-05T14:07:14.216Z,14.76
2022-11-05T14:09:47.509Z,14.36
2022-11-05T14:12:25.840Z,14.98
2022-11-05T14:15:00.953Z,15.46
2022-11-05T14:17:55.487Z,15.66
2022-11-05T14:20:57.215Z,15.78
2022-11-05T14:23:42.373Z,15.83
2022-11-05T14:26:25.851Z,15.93
2022-11-05T14:29:25.926Z,16.07
2022-11-05T14:32:09.329Z,16.19
2022-11-05T14:34:56.275Z,16.22
2022-11-05T14:37:34.492Z,16.11
2022-11-05T14:40:31.684Z,15.96
2022-11-05T14:43:06.027Z,16.40
2022-11-05T14:45:41.110Z,16.62
2022-11-05T14:48:31.915Z,16.47
2022-11-05T14:51:17.398Z,16.35
2022-11-05T14:53:50.033Z,16.39
2022-11-05T14:56:22.122Z,16.41
2022-11-05T14:59:32.190Z,16.47
2022-11-05T15:02:10.353Z,16.66
2022-11-05T15:04:45.516Z,16.91
2022-11-05T15:07:36.199Z,17.04
2022-11-05T15:10:13.478Z,17.09
2022-11-05T15:12:48.886Z,17.01
2022-11-05T15:15:24.788Z,16.93
2022-11-05T15:18:05.593Z,16.95
2022-11-05T15:20:42.706Z,17.05
2022-11-05T15:23:18.633Z,17.14
2022-11-05T15:26:03.466Z,17.25
2022-11-05T15:28:38.793Z,17.33
2022-11-05T15:31:27.211Z,17.41
2022-11-05T15:34:17.839Z,17.47
2022-11-05T15:36:55.930Z,17.11
2022-11-05T15:39:39.374Z,16.06
2022-11-05T15:42:16.354Z,15.01
2022-11-05T15:44:50.614Z,14.52
2022-11-05T15:47:24.988Z,15.25
2022-11-05T15:49:58.430Z,16.03
2022-11-05T15:52:37.258Z,16.52
2022-11-05T15:55:22.756Z,16.87
2022-11-05T15:58:04.337Z,17.12
2022-11-05T16:00:38.257Z,17.35
2022-11-05T16:03:19.762Z,17.54
2022-11-05T16:05:51.620Z,17.70
2022-11-05T16:08:26.594Z,17.65
2022-11-05T16:11:00.402Z,16.69
2022-11-05T16:13:35.439Z,15.67
2022-11-05T16:16:23.800Z,14.88
2022-11-05T16:18:55.606Z,14.52
2022-11-05T16:21:27.381Z,15.20
2022-11-05T16:24:01.341Z,15.83
2022-11-05T16:29:34.413Z,16.34
2022-11-05T16:32:18.516Z,16.48
2022-11-05T16:34:52.464Z,16.70
2022-11-05T16:37:30.367Z,16.94
2022-11-05T16:40:03.729Z,17.12
2022-11-05T16:42:42.783Z,17.21
2022-11-05T16:45:16.592Z,17.31
2022-11-05T16:47:49.015Z,17.41
2022-11-05T16:50:27.005Z,17.48
2022-11-05T16:52:58.917Z,17.61
2022-11-05T16:55:32.816Z,17.53
2022-11-05T16:58:05.049Z,16.58
2022-11-05T17:00:36.893Z,15.52
2022-11-05T17:03:08.774Z,14.72
2022-11-05T17:05:40.580Z,14.44
2022-11-05T17:08:12.687Z,15.37
2022-11-05T17:10:44.813Z,16.23
2022-11-05T17:13:18.587Z,16.72
2022-11-05T17:15:51.695Z,16.99
2022-11-05T17:18:23.870Z,17.03
2022-11-05T17:20:57.479Z,17.07
2022-11-05T17:23:30.095Z,17.26
2022-11-05T17:26:06.644Z,17.41
2022-11-05T17:28:38.937Z,17.60
2022-11-05T17:31:13.371Z,17.70
2022-11-05T17:33:45.539Z,17.48
2022-11-05T17:36:17.940Z,16.48
2022-11-05T17:38:49.690Z,15.45
2022-11-05T17:41:23.546Z,14.61
2022-11-05T17:43:57.613Z,14.33
2022-11-05T17:46:29.461Z,15.29
2022-11-05T17:49:01.178Z,16.16
2022-11-05T17:51:34.675Z,16.65
2022-11-05T17:54:07.629Z,16.90
2022-11-05T17:56:44.736Z,17.08
2022-11-05T17:59:16.784Z,17.15
2022-11-05T18:01:48.700Z,17.23
2022-11-05T18:04:20.520Z,17.25
2022-11-05T18:06:52.317Z,17.30
2022-11-05T18:09:24.093Z,17.39
2022-11-05T18:11:56.252Z,17.39
2022-11-05T18:14:28.109Z,17.35
2022-11-05T18:17:00.408Z,17.32
2022-11-05T18:19:32.437Z,17.37
2022-11-05T18:22:04.224Z,17.44
2022-11-05T18:24:36.750Z,17.50
2022-11-05T18:27:08.521Z,17.56
2022-11-05T18:29:40.536Z,17.42
2022-11-05T18:32:12.616Z,16.49
2022-11-05T18:34:44.635Z,15.53
2022-11-05T18:37:16.465Z,14.73
2022-11-05T18:39:51.358Z,14.40
2022-11-05T18:42:23.487Z,15.32
2022-11-05T18:44:55.280Z,16.17
2022-11-05T18:47:27.099Z,16.63
2022-11-05T18:49:58.948Z,16.82
2022-11-05T18:52:34.083Z,16.90
2022-11-05T18:55:06.469Z,16.87
2022-11-05T18:57:39.262Z,16.87
2022-11-05T19:00:13.187Z,16.87
2022-11-05T19:02:45.183Z,17.06
2022-11-05T19:05:32.686Z,17.27
2022-11-05T19:08:04.955Z,17.36
2022-11-05T19:10:36.701Z,17.37
2022-11-05T19:13:08.423Z,17.42
2022-11-05T19:15:44.340Z,17.45
2022-11-05T19:18:16.168Z,17.50
2022-11-05T19:20:47.971Z,17.59
2022-11-05T19:23:19.841Z,17.53
2022-11-05T19:25:51.689Z,17.49
2022-11-05T19:28:23.579Z,17.45
2022-11-05T19:30:55.325Z,17.42
2022-11-05T19:33:27.107Z,17.42
2022-11-05T19:35:59.770Z,17.46
2022-11-05T19:38:31.646Z,17.48
2022-11-05T19:41:08.076Z,17.33
2022-11-05T19:43:41.314Z,17.21
2022-11-05T19:46:15.379Z,17.17
2022-11-05T19:48:47.779Z,17.18
2022-11-05T19:51:22.453Z,17.26
2022-11-05T19:53:55.425Z,17.30
2022-11-05T19:56:29.741Z,17.33
2022-11-05T19:59:03.166Z,17.35
2022-11-05T20:01:35.709Z,17.33
2022-11-05T20:04:08.071Z,17.28
2022-11-05T20:06:40.825Z,17.31
2022-11-05T20:09:21.661Z,17.35
2022-11-05T20:11:56.604Z,17.32
2022-11-05T20:14:29.897Z,17.23
2022-11-05T20:17:02.482Z,17.22
2022-11-05T20:19:35.455Z,17.19
2022-11-05T20:22:07.264Z,17.19
2022-11-05T20:24:41.224Z,17.20
2022-11-05T20:27:13.055Z,17.19
2022-11-05T20:29:44.932Z,17.23
2022-11-05T20:32:16.760Z,17.26
2022-11-05T20:34:50.425Z,17.21
2022-11-05T20:37:22.266Z,17.16
2022-11-05T20:39:54.281Z,17.12
2022-11-05T20:42:26.171Z,17.09
2022-11-05T20:44:59.092Z,17.13
2022-11-05T20:47:31.676Z,17.19
2022-11-05T20:50:04.547Z,17.26
2022-11-05T20:52:36.830Z,17.26
2022-11-05T20:55:10.191Z,17.28
2022-11-05T20:57:42.054Z,17.38
2022-11-05T21:00:16.032Z,17.42
2022-11-05T21:02:47.914Z,17.35
2022-11-05T21:05:20.289Z,17.35
2022-11-05T21:07:52.444Z,17.40
2022-11-05T21:10:24.491Z,17.18
2022-11-05T21:12:56.524Z,16.06
2022-11-05T21:15:28.310Z,14.88
2022-11-05T21:18:00.426Z,14.29
2022-11-05T21:20:32.359Z,14.97
2022-11-05T21:23:04.094Z,15.69
2022-11-05T21:25:38.172Z,16.04
2022-11-05T21:28:11.023Z,16.27
2022-11-05T21:30:46.101Z,16.50
2022-11-05T21:33:19.784Z,16.66
2022-11-05T21:35:51.667Z,16.80
2022-11-05T21:38:23.559Z,16.94
2022-11-05T21:40:55.319Z,16.96
2022-11-05T21:43:27.145Z,17.01
2022-11-05T21:46:03.638Z,17.15
2022-11-05T21:48:35.478Z,17.29
2022-11-05T21:51:25.009Z,17.18
2022-11-05T21:54:14.694Z,16.11
2022-11-05T21:57:08.306Z,15.03
2022-11-05T21:59:52.316Z,14.57
2022-11-05T22:02:28.575Z,15.38
2022-11-05T22:05:02.270Z,16.03
2022-11-05T22:07:36.621Z,16.46
2022-11-05T22:10:16.395Z,16.71
2022-11-05T22:12:50.916Z,16.86
2022-11-05T22:15:23.379Z,16.89
2022-11-05T22:17:55.155Z,16.93
2022-11-05T22:20:26.932Z,17.10
2022-11-05T22:22:58.827Z,17.28
2022-11-05T22:25:30.616Z,17.45
2022-11-05T22:28:02.458Z,17.34
2022-11-05T22:30:36.753Z,16.34
2022-11-05T22:33:09.050Z,15.23
2022-11-05T22:35:42.675Z,14.35
2022-11-05T22:38:14.711Z,13.96
2022-11-05T22:40:46.736Z,14.73
2022-11-05T22:43:18.469Z,15.50
2022-11-05T22:45:52.581Z,15.98
2022-11-05T22:48:24.530Z,16.25
2022-11-05T22:50:56.334Z,16.38
2022-11-05T22:53:28.114Z,16.45
2022-11-05T22:55:59.884Z,16.61
2022-11-05T22:58:32.070Z,16.74
2022-11-05T23:01:05.541Z,16.85
2022-11-05T23:03:37.682Z,16.96
2022-11-05T23:06:36.211Z,16.98
2022-11-05T23:09:30.531Z,17.05
2022-11-05T23:12:02.861Z,17.08
2022-11-05T23:14:35.593Z,17.06
2022-11-05T23:17:30.046Z,17.08
2022-11-05T23:20:24.740Z,16.76
2022-11-05T23:23:13.819Z,15.53
2022-11-05T23:25:46.037Z,14.42
2022-11-05T23:28:21.686Z,13.94
2022-11-05T23:31:07.453Z,14.64
2022-11-05T23:33:39.309Z,15.34
2022-11-05T23:36:43.559Z,15.76
2022-11-05T23:39:15.440Z,16.08
2022-11-05T23:42:19.272Z,16.25
2022-11-05T23:45:13.124Z,16.41
2022-11-05T23:48:04.433Z,16.56
2022-11-05T23:50:39.813Z,16.64
2022-11-05T23:53:11.983Z,16.74
2022-11-05T23:55:44.491Z,16.81
2022-11-05T23:58:16.979Z,16.88
